Time;durP1;ratioP1;P1;durP2;ratioP2;P2;SDS_P1;SDS_P2;PMS_P1;PMS_P2;Temp;Humidity;BMP_temperature;BMP_pressure;BME280_temperature;BME280_humidity;BME280_pressure;Samples;Min_cycle;Max_cycle;Signal;HPM_P1;HPM_P2
2023/08/19 00:02:13;;;;;;;7.35;3.88;;;;;;;;;;5153883;27;20042;-72
2023/08/19 00:04:39;;;;;;;7.25;4.22;;;;;;;;;;5153476;27;20062;-72
2023/08/19 00:07:06;;;;;;;6.97;3.88;;;;;;;;;;5153523;27;20045;-72
2023/08/19 00:09:36;;;;;;;8.98;3.92;;;;;;;;;;5153302;27;20039;-72
2023/08/19 00:12:03;;;;;;;11.27;3.90;;;;;;;;;;5153807;27;20054;-72
2023/08/19 00:14:33;;;;;;;6.88;4.00;;;;;;;;;;5153655;27;20054;-72
2023/08/19 00:17:03;;;;;;;11.23;3.92;;;;;;;;;;5152525;27;20047;-72
2023/08/19 00:19:30;;;;;;;7.75;3.78;;;;;;;;;;5153500;27;20043;-72
2023/08/19 00:21:59;;;;;;;13.10;4.47;;;;;;;;;;5152106;27;20051;-72
2023/08/19 00:24:26;;;;;;;8.57;4.53;;;;;;;;;;5152478;27;20043;-72
2023/08/19 00:26:53;;;;;;;9.77;4.38;;;;;;;;;;5153334;27;20049;-72
2023/08/19 00:29:19;;;;;;;8.93;4.15;;;;;;;;;;5153268;27;20038;-72
2023/08/19 00:31:46;;;;;;;10.20;4.18;;;;;;;;;;5153158;27;20501;-72
2023/08/19 00:34:13;;;;;;;7.05;4.00;;;;;;;;;;5151769;27;20566;-72
2023/08/19 00:36:40;;;;;;;5.78;3.63;;;;;;;;;;5153202;27;20043;-72
2023/08/19 00:39:07;;;;;;;9.38;4.03;;;;;;;;;;5152135;27;20049;-72
2023/08/19 00:41:33;;;;;;;9.10;4.03;;;;;;;;;;5152788;27;20047;-72
2023/08/19 00:44:00;;;;;;;9.38;4.07;;;;;;;;;;5152577;27;20042;-72
2023/08/19 00:46:29;;;;;;;7.63;3.92;;;;;;;;;;5152889;27;20589;-72
2023/08/19 00:49:00;;;;;;;9.60;4.00;;;;;;;;;;5152606;27;20053;-72
2023/08/19 00:51:26;;;;;;;9.90;4.40;;;;;;;;;;5152641;27;20038;-72
2023/08/19 00:53:53;;;;;;;8.43;4.00;;;;;;;;;;5152330;27;20410;-72
2023/08/19 00:56:20;;;;;;;8.65;3.80;;;;;;;;;;5152843;27;20039;-73
2023/08/19 00:58:47;;;;;;;9.23;4.00;;;;;;;;;;5152275;27;20046;-74
2023/08/19 01:01:14;;;;;;;9.02;4.22;;;;;;;;;;5152715;27;20042;-74
2023/08/19 01:03:40;;;;;;;6.95;3.60;;;;;;;;;;5152259;27;20125;-73
2023/08/19 01:06:24;;;;;;;10.25;4.18;;;;;;;;;;5152645;27;20086;-73
2023/08/19 01:09:08;;;;;;;9.70;4.78;;;;;;;;;;5151618;27;20622;-73
2023/08/19 01:11:44;;;;;;;9.35;4.50;;;;;;;;;;5152456;27;20512;-72
2023/08/19 01:14:37;;;;;;;9.80;3.70;;;;;;;;;;5152126;27;20126;-73
2023/08/19 01:17:10;;;;;;;8.50;4.60;;;;;;;;;;5152506;27;20053;-73
2023/08/19 01:19:39;;;;;;;10.25;4.43;;;;;;;;;;5151954;27;20082;-73
2023/08/19 01:22:08;;;;;;;9.43;3.92;;;;;;;;;;5152323;27;20050;-73
2023/08/19 01:24:39;;;;;;;10.90;4.35;;;;;;;;;;5151801;27;20133;-73
2023/08/19 01:27:21;;;;;;;12.77;4.47;;;;;;;;;;5152449;27;20074;-73
2023/08/19 01:29:48;;;;;;;12.02;4.50;;;;;;;;;;5152093;27;20057;-72
2023/08/19 01:32:15;;;;;;;13.20;4.25;;;;;;;;;;5151673;27;20062;-74
2023/08/19 01:34:42;;;;;;;8.55;3.78;;;;;;;;;;5151616;27;20043;-72
2023/08/19 01:37:14;;;;;;;7.97;4.10;;;;;;;;;;5150704;27;20054;-73
2023/08/19 01:39:44;;;;;;;7.90;4.38;;;;;;;;;;5151410;27;20043;-73
2023/08/19 01:42:12;;;;;;;10.68;4.28;;;;;;;;;;5151974;27;20514;-72
2023/08/19 01:44:39;;;;;;;9.18;4.55;;;;;;;;;;5151748;27;20042;-72
2023/08/19 01:47:16;;;;;;;7.25;4.28;;;;;;;;;;5152246;27;20047;-72
2023/08/19 01:49:43;;;;;;;6.80;4.22;;;;;;;;;;5150977;27;20047;-72
2023/08/19 01:52:12;;;;;;;11.68;4.20;;;;;;;;;;5151537;27;20057;-72
2023/08/19 01:54:39;;;;;;;10.15;4.00;;;;;;;;;;5150081;27;20050;-73
2023/08/19 01:57:06;;;;;;;9.85;4.40;;;;;;;;;;5151786;27;20046;-73
2023/08/19 01:59:34;;;;;;;11.10;4.22;;;;;;;;;;5151117;27;20047;-73
2023/08/19 02:02:01;;;;;;;6.80;3.83;;;;;;;;;;5151395;27;20042;-72
2023/08/19 02:04:27;;;;;;;10.98;4.20;;;;;;;;;;5151099;27;20111;-72
2023/08/19 02:06:54;;;;;;;7.60;3.67;;;;;;;;;;5151167;27;20054;-71
2023/08/19 02:09:21;;;;;;;13.77;4.25;;;;;;;;;;5150660;27;20038;-72
2023/08/19 02:11:47;;;;;;;10.57;4.30;;;;;;;;;;5151396;27;20046;-74
2023/08/19 02:14:14;;;;;;;6.00;3.90;;;;;;;;;;5150847;27;20049;-72
2023/08/19 02:16:40;;;;;;;7.85;4.32;;;;;;;;;;5151274;27;20050;-73
2023/08/19 02:19:10;;;;;;;7.18;4.45;;;;;;;;;;5150758;27;20058;-72
2023/08/19 02:21:36;;;;;;;7.68;3.85;;;;;;;;;;5151018;27;20518;-72
2023/08/19 02:24:06;;;;;;;10.32;3.95;;;;;;;;;;5150705;27;20065;-73
2023/08/19 02:26:35;;;;;;;9.50;3.67;;;;;;;;;;5150836;27;20061;-73
2023/08/19 02:29:03;;;;;;;6.95;3.80;;;;;;;;;;5150459;27;20039;-73
2023/08/19 02:31:29;;;;;;;8.70;4.28;;;;;;;;;;5150530;27;20046;-74
2023/08/19 02:33:56;;;;;;;8.30;4.10;;;;;;;;;;5150486;27;20054;-73
2023/08/19 02:36:23;;;;;;;7.55;3.85;;;;;;;;;;5150840;27;20043;-73
2023/08/19 02:38:49;;;;;;;9.93;4.30;;;;;;;;;;5150492;27;20042;-73
2023/08/19 02:41:16;;;;;;;7.53;4.00;;;;;;;;;;5150649;27;20063;-73
2023/08/19 02:43:43;;;;;;;8.02;3.63;;;;;;;;;;5150565;27;20047;-73
2023/08/19 02:46:12;;;;;;;9.30;4.00;;;;;;;;;;5150554;27;20047;-73
2023/08/19 02:48:42;;;;;;;6.88;3.50;;;;;;;;;;5150503;27;20043;-73
2023/08/19 02:51:11;;;;;;;7.32;3.70;;;;;;;;;;5150004;27;20127;-74
2023/08/19 02:53:38;;;;;;;10.70;4.38;;;;;;;;;;5150389;27;20043;-73
2023/08/19 02:56:06;;;;;;;10.60;3.78;;;;;;;;;;5150276;27;20418;-74
2023/08/19 02:58:33;;;;;;;6.55;3.72;;;;;;;;;;5150631;27;20053;-74
2023/08/19 03:01:00;;;;;;;10.77;4.00;;;;;;;;;;5148531;27;20049;-74
2023/08/19 03:03:29;;;;;;;5.75;3.47;;;;;;;;;;5150098;27;20070;-73
2023/08/19 03:05:59;;;;;;;5.80;3.50;;;;;;;;;;5149649;27;20051;-73
2023/08/19 03:08:27;;;;;;;8.57;3.67;;;;;;;;;;5149697;27;20039;-73
2023/08/19 03:10:53;;;;;;;6.18;2.95;;;;;;;;;;5150123;27;20086;-74
2023/08/19 03:13:20;;;;;;;6.82;3.53;;;;;;;;;;5149000;27;20126;-73
2023/08/19 03:15:47;;;;;;;9.10;3.30;;;;;;;;;;5150107;27;20410;-74
2023/08/19 03:18:17;;;;;;;6.70;3.67;;;;;;;;;;5150427;27;20039;-74
2023/08/19 03:20:43;;;;;;;11.27;3.77;;;;;;;;;;5149691;27;20058;-74
2023/08/19 03:23:10;;;;;;;5.70;3.20;;;;;;;;;;5149796;27;20136;-73
2023/08/19 03:25:39;;;;;;;6.20;3.58;;;;;;;;;;5149798;27;20534;-73
2023/08/19 03:28:06;;;;;;;6.85;3.90;;;;;;;;;;5150360;27;20042;-74
2023/08/19 03:30:32;;;;;;;6.30;3.45;;;;;;;;;;5149943;27;20152;-73
2023/08/19 03:32:59;;;;;;;7.78;2.95;;;;;;;;;;5150035;27;20486;-73
2023/08/19 03:35:26;;;;;;;5.72;3.40;;;;;;;;;;5150056;27;20153;-74
2023/08/19 03:37:52;;;;;;;7.07;2.92;;;;;;;;;;5149907;27;20046;-73
2023/08/19 03:40:19;;;;;;;6.25;3.40;;;;;;;;;;5149348;27;20510;-73
2023/08/19 03:42:46;;;;;;;5.32;3.13;;;;;;;;;;5150136;27;20103;-74
2023/08/19 03:45:15;;;;;;;5.60;2.90;;;;;;;;;;5149689;27;20646;-74
2023/08/19 03:47:42;;;;;;;5.18;2.53;;;;;;;;;;5150047;27;20042;-73
2023/08/19 03:50:12;;;;;;;7.50;3.30;;;;;;;;;;5149848;27;20043;-73
2023/08/19 03:52:41;;;;;;;4.20;2.50;;;;;;;;;;5149501;27;20058;-73
2023/08/19 03:55:08;;;;;;;4.43;2.72;;;;;;;;;;5149545;27;20080;-73
2023/08/19 03:57:35;;;;;;;12.52;2.92;;;;;;;;;;5149662;27;20145;-72
2023/08/19 04:00:02;;;;;;;7.82;2.92;;;;;;;;;;5149836;27;20050;-73
2023/08/19 04:02:28;;;;;;;6.90;2.72;;;;;;;;;;5149815;27;20046;-73
2023/08/19 04:04:58;;;;;;;4.63;2.80;;;;;;;;;;5150052;27;20107;-72
2023/08/19 04:07:24;;;;;;;5.75;2.90;;;;;;;;;;5149573;27;20046;-73
2023/08/19 04:09:54;;;;;;;6.63;3.10;;;;;;;;;;5149737;27;20099;-74
2023/08/19 04:12:25;;;;;;;6.10;3.10;;;;;;;;;;5149642;27;20191;-73
2023/08/19 04:14:52;;;;;;;6.38;2.80;;;;;;;;;;5149381;27;20273;-73
2023/08/19 04:17:19;;;;;;;5.95;2.70;;;;;;;;;;5149226;27;20053;-74
2023/08/19 04:19:46;;;;;;;4.47;2.55;;;;;;;;;;5153366;27;20046;-72
2023/08/19 04:22:17;;;;;;;7.07;2.70;;;;;;;;;;5153328;27;20046;-74
2023/08/19 04:24:52;;;;;;;4.25;2.67;;;;;;;;;;5153699;27;20103;-73
2023/08/19 04:27:19;;;;;;;3.65;2.53;;;;;;;;;;5153129;27;20042;-73
2023/08/19 04:29:46;;;;;;;3.78;2.42;;;;;;;;;;5153099;27;20038;-73
2023/08/19 04:32:13;;;;;;;4.85;2.53;;;;;;;;;;5152595;27;20362;-73
2023/08/19 04:34:40;;;;;;;4.30;2.60;;;;;;;;;;5153125;27;20046;-73
2023/08/19 04:37:08;;;;;;;4.72;2.35;;;;;;;;;;5152821;27;20585;-73
2023/08/19 04:39:36;;;;;;;4.85;2.55;;;;;;;;;;5152585;27;20064;-73
2023/08/19 04:42:03;;;;;;;4.95;2.75;;;;;;;;;;5152717;27;20046;-73
2023/08/19 04:44:30;;;;;;;5.05;2.45;;;;;;;;;;5153241;27;20043;-74
2023/08/19 04:46:57;;;;;;;5.93;2.60;;;;;;;;;;5152507;27;20434;-74
2023/08/19 04:49:23;;;;;;;4.25;2.20;;;;;;;;;;5152489;27;20490;-73
2023/08/19 04:51:50;;;;;;;3.78;2.40;;;;;;;;;;5152710;27;20042;-74
2023/08/19 04:54:20;;;;;;;6.10;2.25;;;;;;;;;;5152150;27;20525;-74
2023/08/19 04:56:49;;;;;;;4.10;2.40;;;;;;;;;;5153164;27;20061;-73
2023/08/19 04:59:16;;;;;;;3.95;2.15;;;;;;;;;;5152524;27;20292;-73
2023/08/19 05:01:43;;;;;;;3.22;2.33;;;;;;;;;;5152392;27;20137;-73
2023/08/19 05:04:09;;;;;;;3.40;2.20;;;;;;;;;;5152862;27;20042;-73
2023/08/19 05:06:36;;;;;;;4.50;2.25;;;;;;;;;;5152339;27;20095;-73
2023/08/19 05:09:03;;;;;;;2.63;2.03;;;;;;;;;;5151987;27;20448;-72
2023/08/19 05:11:29;;;;;;;4.10;2.40;;;;;;;;;;5152035;27;20107;-73
2023/08/19 05:13:56;;;;;;;3.97;2.40;;;;;;;;;;5152150;27;20038;-72
2023/08/19 05:16:23;;;;;;;3.08;2.10;;;;;;;;;;5152352;27;20043;-73
2023/08/19 05:19:03;;;;;;;5.28;2.25;;;;;;;;;;5152423;27;20089;-72
2023/08/19 05:21:30;;;;;;;3.38;2.13;;;;;;;;;;5151639;27;20414;-73
2023/08/19 05:23:56;;;;;;;4.82;2.22;;;;;;;;;;5151671;27;20510;-72
2023/08/19 05:26:23;;;;;;;2.70;2.10;;;;;;;;;;5152251;27;20047;-72
2023/08/19 05:28:49;;;;;;;3.65;2.35;;;;;;;;;;5151805;27;20053;-73
2023/08/19 05:31:16;;;;;;;5.60;2.15;;;;;;;;;;5151177;27;20051;-73
2023/08/19 05:33:43;;;;;;;3.83;2.20;;;;;;;;;;5152176;27;20042;-72
2023/08/19 05:36:09;;;;;;;5.15;2.30;;;;;;;;;;5152065;27;20043;-73
2023/08/19 05:38:36;;;;;;;3.63;2.20;;;;;;;;;;5151541;27;20043;-73
2023/08/19 05:41:03;;;;;;;3.85;2.55;;;;;;;;;;5151756;27;20049;-72
2023/08/19 05:43:30;;;;;;;3.25;2.13;;;;;;;;;;5150570;27;20046;-72
2023/08/19 05:45:58;;;;;;;4.05;2.33;;;;;;;;;;5151345;27;20046;-72
2023/08/19 05:48:25;;;;;;;4.38;2.35;;;;;;;;;;5151722;27;20047;-73
2023/08/19 05:50:51;;;;;;;5.82;2.00;;;;;;;;;;5151854;27;20050;-73
2023/08/19 05:53:18;;;;;;;2.95;1.95;;;;;;;;;;5150896;27;20490;-73
2023/08/19 05:55:44;;;;;;;4.38;2.15;;;;;;;;;;5151753;27;20071;-72
2023/08/19 05:58:11;;;;;;;2.88;2.08;;;;;;;;;;5151544;27;20045;-72
2023/08/19 06:00:38;;;;;;;3.92;2.28;;;;;;;;;;5151363;27;20053;-72
2023/08/19 06:03:04;;;;;;;2.78;1.80;;;;;;;;;;5151022;27;20430;-73
2023/08/19 06:05:31;;;;;;;2.65;1.73;;;;;;;;;;5151621;27;20122;-71
2023/08/19 06:07:59;;;;;;;3.05;1.75;;;;;;;;;;5150632;27;20409;-73
2023/08/19 06:10:26;;;;;;;2.10;1.80;;;;;;;;;;5151144;27;20065;-73
2023/08/19 06:12:52;;;;;;;3.38;1.70;;;;;;;;;;5151334;27;20050;-72
2023/08/19 06:15:20;;;;;;;3.97;2.05;;;;;;;;;;5151052;27;20465;-73
2023/08/19 06:17:49;;;;;;;3.20;1.98;;;;;;;;;;5150727;27;20125;-72
2023/08/19 06:20:16;;;;;;;3.30;1.83;;;;;;;;;;5150693;27;20053;-72
2023/08/19 06:22:43;;;;;;;2.78;1.90;;;;;;;;;;5150372;27;20131;-72
2023/08/19 06:25:10;;;;;;;3.05;2.10;;;;;;;;;;5149410;27;20046;-72
2023/08/19 06:27:36;;;;;;;3.50;2.05;;;;;;;;;;5150634;27;20057;-72
2023/08/19 06:30:03;;;;;;;3.72;1.85;;;;;;;;;;5150989;27;20039;-72
2023/08/19 06:32:30;;;;;;;3.55;2.00;;;;;;;;;;5150218;27;20051;-72
2023/08/19 06:34:57;;;;;;;4.45;2.00;;;;;;;;;;5149363;27;20421;-72
2023/08/19 06:37:30;;;;;;;6.22;2.30;;;;;;;;;;5150040;27;20049;-72
2023/08/19 06:40:04;;;;;;;4.03;2.17;;;;;;;;;;5150700;27;20082;-72
2023/08/19 06:42:32;;;;;;;3.25;2.20;;;;;;;;;;5150023;27;20081;-72
2023/08/19 06:44:59;;;;;;;3.28;2.10;;;;;;;;;;5151145;27;20739;-72
2023/08/19 06:47:31;;;;;;;5.35;2.20;;;;;;;;;;5150582;27;20047;-72
2023/08/19 06:49:59;;;;;;;3.45;2.00;;;;;;;;;;5150951;27;20095;-72
2023/08/19 06:52:26;;;;;;;3.30;2.20;;;;;;;;;;5149995;27;20054;-72
2023/08/19 06:54:53;;;;;;;9.63;2.08;;;;;;;;;;5150560;27;20451;-72
2023/08/19 06:57:29;;;;;;;3.05;2.20;;;;;;;;;;5150055;27;20047;-72
2023/08/19 07:00:06;;;;;;;5.88;2.25;;;;;;;;;;5150346;27;20443;-73
2023/08/19 07:02:36;;;;;;;2.92;2.13;;;;;;;;;;5150269;27;20078;-72
2023/08/19 07:05:13;;;;;;;6.25;2.22;;;;;;;;;;5150475;27;20043;-72
2023/08/19 07:07:46;;;;;;;4.95;2.40;;;;;;;;;;5149780;27;20047;-72
2023/08/19 07:10:19;;;;;;;3.28;2.03;;;;;;;;;;5150308;27;20047;-72
2023/08/19 07:12:47;;;;;;;3.78;1.90;;;;;;;;;;5149736;27;20053;-72
2023/08/19 07:15:14;;;;;;;3.90;2.20;;;;;;;;;;5150174;27;20047;-72
2023/08/19 07:17:46;;;;;;;4.28;2.20;;;;;;;;;;5150182;27;20057;-72
2023/08/19 07:20:19;;;;;;;3.70;2.20;;;;;;;;;;5150369;27;20878;-72
2023/08/19 07:22:51;;;;;;;4.20;2.38;;;;;;;;;;5149684;27;20054;-72
2023/08/19 07:25:19;;;;;;;4.53;2.97;;;;;;;;;;5150218;27;20509;-72
2023/08/19 07:27:46;;;;;;;5.68;2.50;;;;;;;;;;5150285;27;20050;-72
2023/08/19 07:30:13;;;;;;;4.95;2.33;;;;;;;;;;5150095;27;20135;-72
2023/08/19 07:32:40;;;;;;;3.78;2.20;;;;;;;;;;5149265;27;20444;-72
2023/08/19 07:35:07;;;;;;;4.78;2.35;;;;;;;;;;5150103;27;20493;-72
2023/08/19 07:37:34;;;;;;;5.68;2.63;;;;;;;;;;5149365;27;20581;-72
2023/08/19 07:40:01;;;;;;;4.90;2.78;;;;;;;;;;5150503;27;20043;-74
2023/08/19 07:42:27;;;;;;;5.82;2.90;;;;;;;;;;5149855;27;20410;-73
2023/08/19 07:44:54;;;;;;;4.55;2.58;;;;;;;;;;5149840;27;20039;-74
2023/08/19 07:47:21;;;;;;;6.03;3.03;;;;;;;;;;5149868;27;20537;-73
2023/08/19 07:49:48;;;;;;;5.03;2.70;;;;;;;;;;5149765;27;20479;-73
2023/08/19 07:52:15;;;;;;;5.18;3.08;;;;;;;;;;5149204;27;20043;-72
2023/08/19 07:54:42;;;;;;;4.72;3.00;;;;;;;;;;5154075;27;20042;-72
2023/08/19 07:57:09;;;;;;;6.38;2.85;;;;;;;;;;5152873;27;20134;-72
2023/08/19 07:59:37;;;;;;;7.47;3.42;;;;;;;;;;5153732;27;20039;-72
2023/08/19 08:02:04;;;;;;;5.22;2.92;;;;;;;;;;5153872;27;20047;-73
2023/08/19 08:04:31;;;;;;;4.80;2.83;;;;;;;;;;5153526;27;20062;-72
2023/08/19 08:06:57;;;;;;;5.50;2.95;;;;;;;;;;5153811;27;20074;-73
2023/08/19 08:09:24;;;;;;;4.32;2.97;;;;;;;;;;5152039;27;20057;-74
2023/08/19 08:11:52;;;;;;;6.78;2.85;;;;;;;;;;5153797;27;20065;-74
2023/08/19 08:14:19;;;;;;;6.32;3.05;;;;;;;;;;5153457;27;20490;-74
2023/08/19 08:16:45;;;;;;;3.67;2.75;;;;;;;;;;5154151;27;20039;-73
2023/08/19 08:19:12;;;;;;;5.97;3.13;;;;;;;;;;5153729;27;20710;-73
2023/08/19 08:21:39;;;;;;;6.95;3.30;;;;;;;;;;5153400;27;20131;-73
2023/08/19 08:24:06;;;;;;;9.30;3.92;;;;;;;;;;5152695;27;20057;-73
2023/08/19 08:26:33;;;;;;;4.50;3.13;;;;;;;;;;5153010;27;20576;-74
2023/08/19 08:28:59;;;;;;;8.55;3.20;;;;;;;;;;5153144;27;20047;-74
2023/08/19 08:31:26;;;;;;;7.68;3.38;;;;;;;;;;5153422;27;20053;-73
2023/08/19 08:33:53;;;;;;;4.72;3.20;;;;;;;;;;5152956;27;20078;-73
2023/08/19 08:36:19;;;;;;;8.35;3.33;;;;;;;;;;5153802;27;20139;-73
2023/08/19 08:38:46;;;;;;;5.35;3.50;;;;;;;;;;5151630;27;20050;-73
2023/08/19 08:41:14;;;;;;;5.72;3.53;;;;;;;;;;5152836;27;20076;-72
2023/08/19 08:43:46;;;;;;;9.23;3.97;;;;;;;;;;5152726;27;20081;-74
2023/08/19 08:46:14;;;;;;;6.80;3.90;;;;;;;;;;5152909;27;20050;-73
2023/08/19 08:48:41;;;;;;;6.63;3.58;;;;;;;;;;5153114;27;20130;-72
2023/08/19 08:51:09;;;;;;;10.30;3.97;;;;;;;;;;5152972;27;20043;-73
2023/08/19 08:53:36;;;;;;;8.88;3.80;;;;;;;;;;5152242;27;20157;-73
2023/08/19 08:56:03;;;;;;;6.70;3.70;;;;;;;;;;5153017;27;20046;-73
2023/08/19 08:58:29;;;;;;;7.13;3.60;;;;;;;;;;5152366;27;20130;-72
2023/08/19 09:00:57;;;;;;;6.57;3.50;;;;;;;;;;5152553;27;20043;-72
2023/08/19 09:03:33;;;;;;;7.55;3.63;;;;;;;;;;5152258;27;20057;-73
2023/08/19 09:06:10;;;;;;;9.55;3.28;;;;;;;;;;5153073;27;20125;-72
2023/08/19 09:08:50;;;;;;;6.05;3.35;;;;;;;;;;5152189;27;20066;-72
2023/08/19 09:11:21;;;;;;;;;;;;;;;;;;5153069;27;20046;-73
2023/08/19 09:13:56;;;;;;;7.25;3.70;;;;;;;;;;5152108;27;19946;-72
2023/08/19 09:16:22;;;;;;;6.47;3.65;;;;;;;;;;5152414;27;20402;-72
2023/08/19 09:18:51;;;;;;;6.43;3.53;;;;;;;;;;5151928;27;20450;-73
2023/08/19 09:21:18;;;;;;;5.85;3.50;;;;;;;;;;5152319;27;20633;-73
2023/08/19 09:23:44;;;;;;;7.60;3.70;;;;;;;;;;5151464;27;20050;-72
2023/08/19 09:26:11;;;;;;;7.18;4.00;;;;;;;;;;5152400;27;20046;-73
2023/08/19 09:28:38;;;;;;;8.20;3.92;;;;;;;;;;5152076;27;20410;-72
2023/08/19 09:31:20;;;;;;;7.60;3.97;;;;;;;;;;5152404;27;20095;-73
2023/08/19 09:33:48;;;;;;;8.00;4.07;;;;;;;;;;5151602;27;20441;-72
2023/08/19 09:36:15;;;;;;;6.10;4.00;;;;;;;;;;5151735;27;20046;-73
2023/08/19 09:38:42;;;;;;;5.85;4.07;;;;;;;;;;5151901;27;20039;-72
2023/08/19 09:41:10;;;;;;;6.32;4.20;;;;;;;;;;5151861;27;20039;-72
2023/08/19 09:43:39;;;;;;;8.43;4.45;;;;;;;;;;5152017;27;20049;-73
2023/08/19 09:46:07;;;;;;;8.63;4.32;;;;;;;;;;5152249;27;20093;-72
2023/08/19 09:48:35;;;;;;;6.90;4.00;;;;;;;;;;5152040;27;20049;-73
2023/08/19 09:51:02;;;;;;;6.68;4.25;;;;;;;;;;5151860;27;20091;-72
2023/08/19 09:53:32;;;;;;;8.10;4.82;;;;;;;;;;5151283;27;20053;-72
2023/08/19 09:56:00;;;;;;;9.10;4.55;;;;;;;;;;5151683;27;20041;-72
2023/08/19 09:58:27;;;;;;;9.25;5.03;;;;;;;;;;5151618;27;20066;-72
2023/08/19 10:00:55;;;;;;;7.63;4.53;;;;;;;;;;5151402;27;20506;-72
2023/08/19 10:03:22;;;;;;;7.20;5.03;;;;;;;;;;5151625;27;20042;-72
2023/08/19 10:05:53;;;;;;;9.98;4.47;;;;;;;;;;5151655;27;20042;-72
2023/08/19 10:08:23;;;;;;;6.20;4.30;;;;;;;;;;5150152;27;20045;-72
2023/08/19 10:10:49;;;;;;;7.50;4.25;;;;;;;;;;5151055;27;20085;-73
2023/08/19 10:13:17;;;;;;;31.40;5.55;;;;;;;;;;5151088;27;20041;-72
2023/08/19 10:15:44;;;;;;;8.80;5.00;;;;;;;;;;5150666;27;20046;-73
2023/08/19 10:18:17;;;;;;;11.50;4.83;;;;;;;;;;5151518;27;20122;-72
2023/08/19 10:20:50;;;;;;;9.50;4.80;;;;;;;;;;5151154;27;20459;-73
2023/08/19 10:23:18;;;;;;;6.85;4.18;;;;;;;;;;5150535;27;20057;-73
2023/08/19 10:25:45;;;;;;;9.32;4.32;;;;;;;;;;5151055;27;20057;-72
2023/08/19 10:28:13;;;;;;;8.38;5.22;;;;;;;;;;5151056;27;20057;-72
2023/08/19 10:30:40;;;;;;;8.85;5.05;;;;;;;;;;5150995;27;20039;-72
2023/08/19 10:33:27;;;;;;;9.93;5.13;;;;;;;;;;5150650;27;20054;-72
2023/08/19 10:36:17;;;;;;;6.55;4.38;;;;;;;;;;5150754;27;20046;-72
2023/08/19 10:39:00;;;;;;;10.77;5.28;;;;;;;;;;5111975;27;20087;-72
2023/08/19 10:41:29;;;;;;;8.10;5.15;;;;;;;;;;5150886;27;20198;-72
2023/08/19 10:44:01;;;;;;;9.50;5.68;;;;;;;;;;5150803;27;20053;-72
2023/08/19 10:46:42;;;;;;;9.95;5.32;;;;;;;;;;5150817;27;20050;-73
2023/08/19 10:49:19;;;;;;;10.50;4.78;;;;;;;;;;5150989;27;20049;-73
2023/08/19 10:51:53;;;;;;;6.50;4.63;;;;;;;;;;5150820;27;20066;-72
2023/08/19 10:54:26;;;;;;;8.13;4.55;;;;;;;;;;5150156;27;20118;-72
2023/08/19 10:57:16;;;;;;;8.05;4.90;;;;;;;;;;5150608;27;20073;-73
2023/08/19 10:59:49;;;;;;;9.60;5.18;;;;;;;;;;5150366;27;20051;-73
2023/08/19 11:02:16;;;;;;;7.35;4.80;;;;;;;;;;5150499;27;20082;-73
2023/08/19 11:04:46;;;;;;;8.57;4.82;;;;;;;;;;5150146;27;20747;-72
2023/08/19 11:07:13;;;;;;;7.28;4.63;;;;;;;;;;5150120;27;20076;-73
2023/08/19 11:09:44;;;;;;;9.32;5.45;;;;;;;;;;5150913;27;20046;-73
2023/08/19 11:12:15;;;;;;;8.00;4.82;;;;;;;;;;5150679;27;20070;-72
2023/08/19 11:14:48;;;;;;;7.65;4.82;;;;;;;;;;5150724;27;20054;-72
2023/08/19 11:17:16;;;;;;;8.95;4.68;;;;;;;;;;5150465;27;20031;-73
2023/08/19 11:19:43;;;;;;;5.90;4.53;;;;;;;;;;5150492;27;20391;-73
2023/08/19 11:22:16;;;;;;;7.95;5.38;;;;;;;;;;5149751;27;20434;-72
2023/08/19 11:24:43;;;;;;;8.50;5.20;;;;;;;;;;5150474;27;20046;-72
2023/08/19 11:27:11;;;;;;;8.77;5.25;;;;;;;;;;5150313;27;20042;-72
2023/08/19 11:29:38;;;;;;;10.63;5.38;;;;;;;;;;5154594;27;20076;-72
2023/08/19 11:32:06;;;;;;;7.97;5.03;;;;;;;;;;5154389;27;20054;-73
2023/08/19 11:34:33;;;;;;;5.85;4.65;;;;;;;;;;5154457;27;20049;-72
2023/08/19 11:37:05;;;;;;;7.82;4.60;;;;;;;;;;5154367;27;20490;-72
2023/08/19 11:39:34;;;;;;;7.35;4.95;;;;;;;;;;5154261;27;20051;-72
2023/08/19 11:42:02;;;;;;;8.13;5.38;;;;;;;;;;5154437;27;20054;-71
2023/08/19 11:44:31;;;;;;;7.40;5.13;;;;;;;;;;5154228;27;20079;-72
2023/08/19 11:46:58;;;;;;;8.40;4.90;;;;;;;;;;5154398;27;20053;-72
2023/08/19 11:49:31;;;;;;;9.52;4.65;;;;;;;;;;5154508;27;20089;-72
2023/08/19 11:51:58;;;;;;;10.50;5.20;;;;;;;;;;5154409;27;20125;-72
2023/08/19 11:54:26;;;;;;;6.85;5.00;;;;;;;;;;5153757;27;20139;-72
2023/08/19 11:56:54;;;;;;;8.63;5.53;;;;;;;;;;5153800;27;20051;-73
2023/08/19 11:59:31;;;;;;;8.38;4.80;;;;;;;;;;5154124;27;20213;-72
2023/08/19 12:02:03;;;;;;;7.95;4.82;;;;;;;;;;5153662;27;20516;-72
2023/08/19 12:04:33;;;;;;;6.97;4.50;;;;;;;;;;5153836;27;20091;-73
2023/08/19 12:07:08;;;;;;;5.85;4.43;;;;;;;;;;5154108;27;20047;-72
2023/08/19 12:09:40;;;;;;;5.85;4.28;;;;;;;;;;5153984;27;20129;-72
2023/08/19 12:12:13;;;;;;;6.25;4.63;;;;;;;;;;5153949;27;20083;-72
2023/08/19 12:14:40;;;;;;;10.57;4.57;;;;;;;;;;5153673;27;20578;-73
2023/08/19 12:17:09;;;;;;;5.72;4.50;;;;;;;;;;5153552;27;20042;-72
2023/08/19 12:19:36;;;;;;;7.70;4.68;;;;;;;;;;5153810;27;20050;-72
2023/08/19 12:22:03;;;;;;;8.48;4.38;;;;;;;;;;5153582;27;20413;-72
2023/08/19 12:24:31;;;;;;;7.65;4.75;;;;;;;;;;5152948;27;20054;-72
2023/08/19 12:26:58;;;;;;;7.72;5.10;;;;;;;;;;5153515;27;20049;-73
2023/08/19 12:29:24;;;;;;;7.85;5.32;;;;;;;;;;5153845;27;20047;-72
2023/08/19 12:31:51;;;;;;;6.60;4.78;;;;;;;;;;5153261;27;20050;-72
2023/08/19 12:34:18;;;;;;;7.15;4.53;;;;;;;;;;5153168;27;20534;-72
2023/08/19 12:36:45;;;;;;;5.35;4.10;;;;;;;;;;5153269;27;20654;-73
2023/08/19 12:39:12;;;;;;;7.70;4.07;;;;;;;;;;5152467;27;20047;-72
2023/08/19 12:41:43;;;;;;;8.32;4.63;;;;;;;;;;5151933;27;20406;-73
2023/08/19 12:44:12;;;;;;;6.97;4.20;;;;;;;;;;5153110;27;20054;-72
2023/08/19 12:46:45;;;;;;;5.85;3.90;;;;;;;;;;5153007;27;20498;-72
2023/08/19 12:49:16;;;;;;;7.95;4.65;;;;;;;;;;5153098;27;20517;-73
2023/08/19 12:51:42;;;;;;;6.15;4.60;;;;;;;;;;5152655;27;20043;-72
2023/08/19 12:54:13;;;;;;;5.75;4.13;;;;;;;;;;5152065;27;20565;-72
2023/08/19 12:56:40;;;;;;;7.97;4.47;;;;;;;;;;5152860;27;20601;-73
2023/08/19 12:59:07;;;;;;;6.70;4.40;;;;;;;;;;5152884;27;20043;-72
2023/08/19 13:01:34;;;;;;;7.97;4.75;;;;;;;;;;5152672;27;20049;-73
2023/08/19 13:04:01;;;;;;;8.07;3.88;;;;;;;;;;5152735;27;20050;-73
2023/08/19 13:06:27;;;;;;;8.30;4.45;;;;;;;;;;5152696;27;20054;-72
2023/08/19 13:08:55;;;;;;;6.70;4.30;;;;;;;;;;5152322;27;20039;-71
2023/08/19 13:11:22;;;;;;;6.72;4.82;;;;;;;;;;5152590;27;20078;-71
2023/08/19 13:13:48;;;;;;;9.02;4.47;;;;;;;;;;5152934;27;20046;-71
2023/08/19 13:16:15;;;;;;;5.32;3.97;;;;;;;;;;5152214;27;20053;-75
2023/08/19 13:18:42;;;;;;;5.32;3.65;;;;;;;;;;5153021;27;20042;-74
2023/08/19 13:21:08;;;;;;;5.95;4.47;;;;;;;;;;5152685;27;20047;-73
2023/08/19 13:23:35;;;;;;;7.57;4.40;;;;;;;;;;5151741;27;20526;-73
2023/08/19 13:26:04;;;;;;;10.77;4.00;;;;;;;;;;5152491;27;20551;-73
2023/08/19 13:28:31;;;;;;;5.72;4.00;;;;;;;;;;5152132;27;20047;-73
2023/08/19 13:30:58;;;;;;;6.43;4.32;;;;;;;;;;5152171;27;20077;-73
2023/08/19 13:33:25;;;;;;;5.95;4.25;;;;;;;;;;5151989;27;20054;-73
2023/08/19 13:35:53;;;;;;;6.15;4.32;;;;;;;;;;5152056;27;20085;-73
2023/08/19 13:38:20;;;;;;;6.18;3.75;;;;;;;;;;5151922;27;20046;-73
2023/08/19 13:40:46;;;;;;;4.97;3.45;;;;;;;;;;5152180;27;20189;-73
2023/08/19 13:43:13;;;;;;;5.97;3.83;;;;;;;;;;5151693;27;20042;-72
2023/08/19 13:45:40;;;;;;;8.60;3.65;;;;;;;;;;5152104;27;20051;-73
2023/08/19 13:48:07;;;;;;;7.25;3.90;;;;;;;;;;5151908;27;20039;-73
2023/08/19 13:50:43;;;;;;;7.45;3.45;;;;;;;;;;5151444;27;20051;-73
2023/08/19 13:53:10;;;;;;;6.45;3.90;;;;;;;;;;5151675;27;20057;-73
2023/08/19 13:55:37;;;;;;;6.15;3.50;;;;;;;;;;5151990;27;20057;-74
2023/08/19 13:58:04;;;;;;;5.68;3.72;;;;;;;;;;5152205;27;20053;-73
2023/08/19 14:00:30;;;;;;;4.72;3.58;;;;;;;;;;5151674;27;20129;-74
2023/08/19 14:02:57;;;;;;;9.90;3.80;;;;;;;;;;5151532;27;20066;-73
2023/08/19 14:05:24;;;;;;;7.95;3.70;;;;;;;;;;5151275;27;20520;-73
2023/08/19 14:07:51;;;;;;;7.28;3.83;;;;;;;;;;5151111;27;20153;-73
2023/08/19 14:10:22;;;;;;;7.82;4.00;;;;;;;;;;5151873;27;20073;-74
2023/08/19 14:12:49;;;;;;;6.05;3.92;;;;;;;;;;5151558;27;20068;-73
2023/08/19 14:15:15;;;;;;;6.88;3.53;;;;;;;;;;5151762;27;20050;-73
2023/08/19 14:17:42;;;;;;;7.45;3.85;;;;;;;;;;5151087;27;20102;-73
2023/08/19 14:20:11;;;;;;;6.65;3.85;;;;;;;;;;5151624;27;20422;-73
2023/08/19 14:22:39;;;;;;;5.68;3.72;;;;;;;;;;5151120;27;20171;-74
2023/08/19 14:25:07;;;;;;;6.40;3.83;;;;;;;;;;5151166;27;20049;-74
2023/08/19 14:27:33;;;;;;;6.40;3.53;;;;;;;;;;5151369;27;20057;-73
2023/08/19 14:30:00;;;;;;;5.07;3.45;;;;;;;;;;5151665;27;20045;-74
2023/08/19 14:32:27;;;;;;;4.72;3.50;;;;;;;;;;5150936;27;20043;-74
2023/08/19 14:34:54;;;;;;;6.47;3.88;;;;;;;;;;5151059;27;20042;-74
2023/08/19 14:37:21;;;;;;;6.00;3.85;;;;;;;;;;5150616;27;20066;-73
2023/08/19 14:39:47;;;;;;;5.78;3.50;;;;;;;;;;5151338;27;20043;-73
2023/08/19 14:42:14;;;;;;;7.45;3.58;;;;;;;;;;5150655;27;20593;-73
2023/08/19 14:44:41;;;;;;;5.72;3.33;;;;;;;;;;5150677;27;20054;-74
2023/08/19 14:47:08;;;;;;;5.35;3.30;;;;;;;;;;5150994;27;20047;-73
2023/08/19 14:49:34;;;;;;;6.68;3.72;;;;;;;;;;5150911;27;20051;-73
2023/08/19 14:52:02;;;;;;;7.65;3.75;;;;;;;;;;5151142;27;20046;-73